createdAt,value
2019-05-10T00:01:10.477Z,98397.14
2019-05-10T00:03:56.976Z,98398.46
2019-05-10T00:06:43.455Z,98404.20
2019-05-10T00:09:11.737Z,98397.14
2019-05-10T00:11:49.423Z,98401.80
2019-05-10T00:14:25.855Z,98398.36
2019-05-10T00:16:56.175Z,98398.53
2019-05-10T00:19:24.896Z,98396.05
2019-05-10T00:21:53.716Z,98400.08
2019-05-10T00:24:22.475Z,98401.22
2019-05-10T00:26:51.217Z,98396.05
2019-05-10T00:29:20.098Z,98398.77
2019-05-10T00:31:48.838Z,98395.34
2019-05-10T00:34:17.655Z,98397.97
2019-05-10T00:36:46.399Z,98403.94
2019-05-10T00:39:15.135Z,98403.23
2019-05-10T00:41:43.915Z,98401.16
2019-05-10T00:44:12.716Z,98399.44
2019-05-10T00:46:41.476Z,98393.33
2019-05-10T00:49:10.237Z,98392.80
2019-05-10T00:51:38.994Z,98400.84
2019-05-10T00:54:07.756Z,98397.07
2019-05-10T00:56:36.555Z,98404.83
2019-05-10T00:59:05.315Z,98399.89
2019-05-10T01:01:34.076Z,98403.98
2019-05-10T01:04:02.835Z,98404.90
2019-05-10T01:06:31.556Z,98402.63
2019-05-10T01:09:00.375Z,98399.31
2019-05-10T01:11:29.197Z,98398.27
2019-05-10T01:13:57.955Z,98400.59
2019-05-10T01:16:26.838Z,98401.00
2019-05-10T01:18:55.635Z,98399.20
2019-05-10T01:21:24.377Z,98404.07
2019-05-10T01:23:53.117Z,98402.38
2019-05-10T01:26:21.875Z,98399.06
2019-05-10T01:28:50.617Z,98396.64
2019-05-10T01:31:19.476Z,98393.42
2019-05-10T01:33:48.239Z,98399.41
2019-05-10T01:36:17.035Z,98393.00
2019-05-10T01:38:45.757Z,98400.34
2019-05-10T01:41:14.518Z,98399.75
2019-05-10T01:43:43.316Z,98412.66
2019-05-10T01:46:12.036Z,98402.87
2019-05-10T01:48:40.817Z,98407.95
2019-05-10T01:51:09.576Z,98413.95
2019-05-10T01:53:38.295Z,98413.04
2019-05-10T01:56:07.117Z,98412.38
2019-05-10T01:58:35.815Z,98410.80
2019-05-10T02:01:04.543Z,98415.06
2019-05-10T02:03:33.355Z,98417.36
2019-05-10T02:06:02.095Z,98419.31
2019-05-10T02:08:30.855Z,98418.33
2019-05-10T02:10:59.643Z,98420.39
2019-05-10T02:13:28.355Z,98423.65
2019-05-10T02:15:57.177Z,98423.05
2019-05-10T02:18:25.939Z,98431.77
2019-05-10T02:20:54.716Z,98426.30
2019-05-10T02:23:23.543Z,98430.89
2019-05-10T02:26:08.415Z,98437.96
2019-05-10T02:28:22.859Z,98437.79
2019-05-10T02:30:51.636Z,98435.44
2019-05-10T02:33:20.397Z,98433.71
2019-05-10T02:35:49.197Z,98438.58
2019-05-10T02:38:17.916Z,98433.39
2019-05-10T02:40:46.657Z,98439.02
2019-05-10T02:43:15.456Z,98446.37
2019-05-10T02:45:44.197Z,98444.52
2019-05-10T02:48:12.938Z,98443.88
2019-05-10T02:50:41.719Z,98442.66
2019-05-10T02:53:10.715Z,98438.06
2019-05-10T02:55:39.733Z,98441.91
2019-05-10T02:58:08.656Z,98440.94
2019-05-10T03:00:40.316Z,98449.17
2019-05-10T03:03:11.238Z,98446.00
2019-05-10T03:05:47.834Z,98449.40
2019-05-10T03:08:15.537Z,98457.11
2019-05-10T03:10:49.957Z,98456.61
2019-05-10T03:13:21.661Z,98450.28
2019-05-10T03:15:52.563Z,98454.86
2019-05-10T03:18:23.477Z,98448.77
2019-05-10T03:20:55.158Z,98454.23
2019-05-10T03:23:26.316Z,98458.68
2019-05-10T03:25:55.079Z,98464.50
2019-05-10T03:28:23.836Z,98457.30
2019-05-10T03:30:52.621Z,98457.95
2019-05-10T03:33:21.377Z,98461.00
2019-05-10T03:35:50.227Z,98465.90
2019-05-10T03:38:19.017Z,98457.42
2019-05-10T03:40:47.877Z,98464.67
2019-05-10T03:43:16.658Z,98460.19
2019-05-10T03:45:45.461Z,98462.08
2019-05-10T03:48:14.206Z,98469.83
2019-05-10T03:50:42.980Z,98475.36
2019-05-10T03:53:11.755Z,98474.30
2019-05-10T03:55:40.479Z,98476.59
2019-05-10T03:58:09.276Z,98476.84
2019-05-10T04:00:38.017Z,98483.77
2019-05-10T04:03:06.838Z,98478.84
2019-05-10T04:05:35.783Z,98472.50
2019-05-10T04:08:04.626Z,98481.80
2019-05-10T04:10:33.380Z,98478.25
2019-05-10T04:13:02.121Z,98478.98
2019-05-10T04:15:30.900Z,98493.69
2019-05-10T04:17:59.643Z,98483.87
2019-05-10T04:20:28.465Z,98491.41
2019-05-10T04:22:57.217Z,98487.62
2019-05-10T04:25:25.917Z,98496.38
2019-05-10T04:27:54.701Z,98497.65
2019-05-10T04:30:23.558Z,98498.02
2019-05-10T04:32:52.337Z,98494.41
2019-05-10T04:35:21.102Z,98499.28
2019-05-10T04:37:49.896Z,98502.62
2019-05-10T04:40:18.679Z,98504.45
2019-05-10T04:42:47.578Z,98505.18
2019-05-10T04:45:16.476Z,98509.83
2019-05-10T04:47:45.226Z,98501.08
2019-05-10T04:50:13.999Z,98499.04
2019-05-10T04:52:42.777Z,98499.30
2019-05-10T04:55:11.576Z,98506.78
2019-05-10T04:57:49.748Z,98503.30
2019-05-10T05:00:11.236Z,98509.47
2019-05-10T05:02:40.017Z,98507.19
2019-05-10T05:05:08.778Z,98503.03
2019-05-10T05:07:37.575Z,98505.44
2019-05-10T05:10:07.815Z,98511.91
2019-05-10T05:12:36.515Z,98507.94
2019-05-10T05:15:09.217Z,98510.67
2019-05-10T05:17:37.977Z,98513.05
2019-05-10T05:20:06.800Z,98515.05
2019-05-10T05:22:35.558Z,98528.38
2019-05-10T05:25:06.195Z,98526.83
2019-05-10T05:27:34.976Z,98525.17
2019-05-10T05:30:07.659Z,98529.69
2019-05-10T05:32:38.766Z,98530.84
2019-05-10T05:35:07.177Z,98534.08
2019-05-10T05:37:35.978Z,98537.61
2019-05-10T05:40:06.755Z,98534.47
2019-05-10T05:42:35.577Z,98541.42
2019-05-10T05:45:06.249Z,98542.54
2019-05-10T05:47:37.692Z,98541.98
2019-05-10T05:50:08.875Z,98541.62
2019-05-10T05:52:37.615Z,98556.15
2019-05-10T05:55:09.775Z,98554.75
2019-05-10T05:57:38.541Z,98547.54
2019-05-10T06:00:07.597Z,98548.38
2019-05-10T06:02:44.360Z,98549.52
2019-05-10T06:05:06.856Z,98558.38
2019-05-10T06:07:38.009Z,98567.20
2019-05-10T06:10:10.250Z,98563.86
2019-05-10T06:12:37.916Z,98568.67
2019-05-10T06:15:07.876Z,98569.02
2019-05-10T06:17:36.705Z,98576.31
2019-05-10T06:20:08.376Z,98579.69
2019-05-10T06:22:38.265Z,98585.40
2019-05-10T06:25:08.426Z,98580.63
2019-05-10T06:27:41.132Z,98582.75
2019-05-10T06:30:07.996Z,98586.25
2019-05-10T06:32:36.800Z,98589.38
2019-05-10T06:35:07.156Z,98594.42
2019-05-10T06:37:36.256Z,98597.53
2019-05-10T06:40:06.558Z,98596.45
2019-05-10T06:42:36.224Z,98601.64
2019-05-10T06:45:14.413Z,98599.11
2019-05-10T06:47:42.131Z,98598.52
2019-05-10T06:50:08.514Z,98603.06
2019-05-10T06:52:37.309Z,98603.37
2019-05-10T06:55:07.961Z,98599.00
2019-05-10T06:57:36.776Z,98603.31
2019-05-10T07:00:08.057Z,98602.14
2019-05-10T07:02:37.017Z,98605.87
2019-05-10T07:05:06.004Z,98605.59
2019-05-10T07:07:44.212Z,98606.03
2019-05-10T07:10:15.721Z,98607.39
2019-05-10T07:12:38.987Z,98602.31
2019-05-10T07:15:09.175Z,98609.01
2019-05-10T07:17:45.407Z,98613.97
2019-05-10T07:20:09.356Z,98610.30
2019-05-10T07:22:38.176Z,98614.79
2019-05-10T07:25:07.844Z,98613.61
2019-05-10T07:27:38.515Z,98615.44
2019-05-10T07:30:07.785Z,98616.17
2019-05-10T07:32:36.506Z,98616.05
2019-05-10T07:35:06.716Z,98623.81
2019-05-10T07:37:35.875Z,98619.19
2019-05-10T07:40:07.049Z,98617.25
2019-05-10T07:42:39.703Z,98626.42
2019-05-10T07:45:07.357Z,98626.20
2019-05-10T07:47:36.178Z,98634.05
2019-05-10T07:50:09.897Z,98637.81
2019-05-10T07:52:43.393Z,98637.61
2019-05-10T07:55:10.519Z,98637.33
2019-05-10T07:57:38.976Z,98642.66
2019-05-10T08:00:08.277Z,98652.97
2019-05-10T08:02:37.035Z,98649.65
2019-05-10T08:05:10.906Z,98644.93
2019-05-10T08:07:38.748Z,98645.59
2019-05-10T08:10:08.779Z,98644.30
2019-05-10T08:12:43.768Z,98641.64
2019-05-10T08:15:09.975Z,98640.64
2019-05-10T08:17:41.003Z,98641.48
2019-05-10T08:20:22.126Z,98646.92
2019-05-10T08:22:45.632Z,98653.50
2019-05-10T08:25:12.688Z,98656.62
2019-05-10T08:27:49.764Z,98655.73
2019-05-10T08:30:28.052Z,98665.27
2019-05-10T08:32:42.702Z,98671.09
2019-05-10T08:35:16.859Z,98676.22
2019-05-10T08:37:43.262Z,98680.89
2019-05-10T08:40:12.917Z,98680.05
2019-05-10T08:42:48.156Z,98680.17
2019-05-10T08:45:12.687Z,98682.55
2019-05-10T08:47:42.682Z,98682.58
2019-05-10T08:50:28.850Z,98685.44
2019-05-10T08:52:42.665Z,98685.56
2019-05-10T08:55:12.315Z,98686.12
2019-05-10T08:57:44.369Z,98689.57
2019-05-10T09:00:13.022Z,98682.58
2019-05-10T09:02:42.825Z,98689.31
2019-05-10T09:05:12.426Z,98690.10
2019-05-10T09:07:42.918Z,98688.34
2019-05-10T09:10:13.108Z,98692.73
2019-05-10T09:12:51.020Z,98704.85
2019-05-10T09:15:13.500Z,98697.30
2019-05-10T09:17:43.161Z,98699.13
2019-05-10T09:20:20.752Z,98699.55
2019-05-10T09:22:44.277Z,98707.03
2019-05-10T09:25:13.720Z,98707.36
2019-05-10T09:27:43.258Z,98715.23
2019-05-10T09:30:18.300Z,98714.22
2019-05-10T09:32:43.895Z,98717.78
2019-05-10T09:35:13.139Z,98717.62
2019-05-10T09:37:42.270Z,98723.83
2019-05-10T09:40:13.339Z,98715.88
2019-05-10T09:42:43.588Z,98718.77
2019-05-10T09:45:13.032Z,98723.48
2019-05-10T09:47:43.396Z,98723.61
2019-05-10T09:50:12.977Z,98722.54
2019-05-10T09:52:41.806Z,98726.14
2019-05-10T09:55:14.688Z,98722.22
2019-05-10T09:57:41.116Z,98719.15
2019-05-10T10:00:11.739Z,98716.70
2019-05-10T10:02:40.989Z,98711.03
2019-05-10T10:05:10.037Z,98716.14
2019-05-10T10:07:38.836Z,98715.25
2019-05-10T10:10:12.670Z,98722.14
2019-05-10T10:12:38.416Z,98722.34
2019-05-10T10:15:09.566Z,98723.86
2019-05-10T10:17:42.142Z,98724.41
2019-05-10T10:20:08.675Z,98733.16
2019-05-10T10:22:38.234Z,98731.25
2019-05-10T10:25:07.645Z,98732.09
2019-05-10T10:27:39.361Z,98746.83
2019-05-10T10:30:12.795Z,98746.24
2019-05-10T10:32:39.739Z,98755.16
2019-05-10T10:35:13.149Z,98750.00
2019-05-10T10:37:39.115Z,98753.03
2019-05-10T10:40:08.901Z,98758.16
2019-05-10T10:42:38.328Z,98760.09
2019-05-10T10:45:10.375Z,98765.94
2019-05-10T10:47:39.184Z,98765.20
2019-05-10T10:50:13.151Z,98771.26
2019-05-10T10:52:39.237Z,98767.25
2019-05-10T10:55:11.931Z,98773.93
2019-05-10T10:57:40.196Z,98778.55
2019-05-10T11:00:11.036Z,98785.30
2019-05-10T11:02:41.661Z,98788.27
2019-05-10T11:05:10.476Z,98788.73
2019-05-10T11:07:44.275Z,98786.16
2019-05-10T11:10:16.185Z,98787.16
2019-05-10T11:12:41.400Z,98793.33
2019-05-10T11:15:11.448Z,98786.63
2019-05-10T11:17:40.880Z,98790.15
2019-05-10T11:20:11.509Z,98789.97
2019-05-10T11:22:42.048Z,98795.46
2019-05-10T11:25:12.921Z,98795.82
2019-05-10T11:27:41.995Z,98799.17
2019-05-10T11:30:12.333Z,98803.92
2019-05-10T11:32:42.008Z,98796.09
2019-05-10T11:35:12.017Z,98803.33
2019-05-10T11:37:45.385Z,98798.64
2019-05-10T11:40:18.072Z,98794.32
2019-05-10T11:42:47.285Z,98793.52
2019-05-10T11:45:14.132Z,98799.80
2019-05-10T11:47:42.857Z,98804.24
2019-05-10T11:50:27.368Z,98804.41
2019-05-10T11:52:42.596Z,98803.73
2019-05-10T11:55:12.501Z,98804.52
2019-05-10T11:57:44.181Z,98803.22
2019-05-10T12:03:01.756Z,98806.24
2019-05-10T12:05:19.963Z,98807.66
2019-05-10T12:07:46.061Z,98799.84
2019-05-10T12:10:20.180Z,98808.39
2019-05-10T12:12:59.852Z,98806.05
2019-05-10T12:15:15.255Z,98807.98
2019-05-10T12:17:47.654Z,98815.95
2019-05-10T12:22:47.582Z,98826.84
2019-05-10T12:25:36.073Z,98841.72
2019-05-10T12:26:17.889Z,98823.88
2019-05-10T12:26:18.917Z,98808.80
2019-05-10T12:27:49.143Z,98834.80
2019-05-10T12:30:17.555Z,98836.47
2019-05-10T12:32:55.723Z,98842.36
2019-05-10T12:35:16.936Z,98839.45
2019-05-10T12:37:51.354Z,98834.09
2019-05-10T12:40:16.176Z,98835.39
2019-05-10T12:42:47.155Z,98835.88
2019-05-10T12:45:16.236Z,98842.80
2019-05-10T12:47:45.044Z,98840.06
2019-05-10T12:50:14.504Z,98846.73
2019-05-10T12:52:43.545Z,98852.92
2019-05-10T12:55:13.936Z,98853.27
2019-05-10T12:57:43.624Z,98849.89
2019-05-10T13:00:15.586Z,98873.44
2019-05-10T13:02:44.682Z,98866.59
2019-05-10T13:05:15.549Z,98875.40
2019-05-10T13:07:44.654Z,98870.06
2019-05-10T13:10:13.915Z,98875.81
2019-05-10T13:12:46.820Z,98872.80
2019-05-10T13:15:13.637Z,98873.14
2019-05-10T13:17:50.417Z,98867.98
2019-05-10T13:20:13.675Z,98869.80
2019-05-10T13:22:42.457Z,98868.61
2019-05-10T13:25:11.356Z,98868.20
2019-05-10T13:27:40.116Z,98864.53
2019-05-10T13:30:10.777Z,98861.52
2019-05-10T13:32:39.604Z,98868.35
2019-05-10T13:35:08.465Z,98866.16
2019-05-10T13:37:37.216Z,98871.72
2019-05-10T13:40:09.377Z,98868.98
2019-05-10T13:42:43.086Z,98866.75
2019-05-10T13:45:08.982Z,98866.82
2019-05-10T13:47:37.787Z,98871.91
2019-05-10T13:50:08.356Z,98874.78
2019-05-10T13:52:38.906Z,98868.77
2019-05-10T13:55:08.136Z,98872.61
2019-05-10T13:57:36.897Z,98873.58
2019-05-10T14:00:07.904Z,98878.67
2019-05-10T14:02:36.707Z,98878.67
2019-05-10T14:05:06.552Z,98888.88
2019-05-10T14:07:35.336Z,98886.53
2019-05-10T14:10:04.784Z,98895.10
2019-05-10T14:12:33.616Z,98893.80
2019-05-10T14:15:08.339Z,98897.77
2019-05-10T14:17:32.898Z,98891.02
2019-05-10T14:20:01.711Z,98890.89
2019-05-10T14:22:30.616Z,98892.49
2019-05-10T14:24:59.422Z,98892.84
2019-05-10T14:27:29.776Z,98885.17
2019-05-10T14:29:58.698Z,98890.48
2019-05-10T14:32:27.495Z,98885.89
2019-05-10T14:34:56.337Z,98902.05
2019-05-10T14:37:25.121Z,98897.03
2019-05-10T14:39:53.984Z,98902.25
2019-05-10T14:42:30.840Z,98910.06
2019-05-10T14:44:53.298Z,98901.25
2019-05-10T14:47:22.050Z,98911.31
2019-05-10T14:49:50.776Z,98936.63
2019-05-10T14:52:22.387Z,98929.13
2019-05-10T14:54:55.239Z,98936.18
2019-05-10T14:57:20.555Z,98936.92
2019-05-10T14:59:49.376Z,98944.42
2019-05-10T15:02:22.945Z,98953.45
2019-05-10T15:04:48.591Z,98949.95
2019-05-10T15:07:17.385Z,98965.45
2019-05-10T15:09:46.257Z,98968.62
2019-05-10T15:12:16.357Z,98954.01
2019-05-10T15:14:45.560Z,98954.43
2019-05-10T15:17:14.415Z,98963.27
2019-05-10T15:19:55.732Z,98957.25
2019-05-10T15:22:18.519Z,98952.70
2019-05-10T15:24:44.119Z,98956.88
2019-05-10T15:27:16.111Z,98972.94
2019-05-10T15:29:43.496Z,98968.00
2019-05-10T15:32:12.255Z,98971.48
2019-05-10T15:34:41.056Z,98974.21
2019-05-10T15:37:10.761Z,98971.89
2019-05-10T15:39:39.737Z,98962.00
2019-05-10T15:42:08.540Z,98965.95
2019-05-10T15:44:37.339Z,98966.22
2019-05-10T15:47:06.151Z,98972.44
2019-05-10T15:49:35.057Z,98970.63
2019-05-10T15:52:16.963Z,98975.19
2019-05-10T15:54:38.182Z,98972.03
2019-05-10T15:57:04.841Z,98979.42
2019-05-10T15:59:33.589Z,98973.91
2019-05-10T16:02:02.370Z,98963.22
2019-05-10T16:04:31.183Z,98965.63
2019-05-10T16:06:59.975Z,98967.79
2019-05-10T16:09:28.743Z,98968.70
2019-05-10T16:12:01.899Z,98969.53
2019-05-10T16:14:33.143Z,98972.55
2019-05-10T16:16:58.656Z,98965.41
2019-05-10T16:19:27.502Z,98971.78
2019-05-10T16:21:58.109Z,98971.47
2019-05-10T16:24:28.096Z,98978.48
2019-05-10T16:27:00.049Z,98970.84
2019-05-10T16:29:27.657Z,98972.75
2019-05-10T16:31:56.497Z,98968.62
2019-05-10T16:34:26.379Z,98967.52
2019-05-10T16:36:55.777Z,98972.98
2019-05-10T16:39:24.576Z,98981.77
2019-05-10T16:41:53.325Z,98975.66
2019-05-10T16:44:22.226Z,98983.45
2019-05-10T16:46:51.096Z,98994.36
2019-05-10T16:49:19.896Z,99001.79
2019-05-10T16:51:49.975Z,98986.83
2019-05-10T16:54:25.061Z,98996.72
2019-05-10T16:56:51.587Z,99001.05
2019-05-10T16:59:24.406Z,99005.23
2019-05-10T17:01:50.518Z,98999.67
2019-05-10T17:04:19.418Z,99006.56
2019-05-10T17:06:48.215Z,99015.33
2019-05-10T17:09:18.759Z,99012.34
2019-05-10T17:11:48.669Z,99014.70
2019-05-10T17:14:18.297Z,99018.83
2019-05-10T17:16:49.493Z,99023.05
2019-05-10T17:19:18.681Z,99023.81
2019-05-10T17:21:47.456Z,99024.64
2019-05-10T17:24:18.668Z,99032.13
2019-05-10T17:26:46.880Z,99039.45
2019-05-10T17:29:15.736Z,99036.98
2019-05-10T17:31:45.740Z,99039.86
2019-05-10T17:34:22.115Z,99036.59
2019-05-10T17:36:45.457Z,99044.78
2019-05-10T17:39:14.255Z,99048.77
2019-05-10T17:41:43.057Z,99049.67
2019-05-10T17:44:11.895Z,99062.41
2019-05-10T17:46:40.656Z,99058.92
2019-05-10T17:49:09.456Z,99051.66
2019-05-10T17:51:38.255Z,99058.39
2019-05-10T17:54:07.058Z,99067.66
2019-05-10T17:56:38.861Z,99067.38
2019-05-10T17:59:11.996Z,99071.09
2019-05-10T18:01:36.900Z,99070.67
2019-05-10T18:04:05.638Z,99071.98
2019-05-10T18:06:34.456Z,99069.10
2019-05-10T18:09:03.296Z,99073.88
2019-05-10T18:11:36.757Z,99073.98
2019-05-10T18:14:02.815Z,99075.27
2019-05-10T18:16:31.575Z,99080.77
2019-05-10T18:19:00.381Z,99081.16
2019-05-10T18:21:29.215Z,99084.57
2019-05-10T18:23:58.624Z,99081.76
2019-05-10T18:26:28.535Z,99090.25
2019-05-10T18:28:57.337Z,99092.51
2019-05-10T18:31:26.137Z,99094.70
2019-05-10T18:33:56.011Z,99094.04
2019-05-10T18:36:50.005Z,99095.66
2019-05-10T18:38:55.417Z,99104.13
2019-05-10T18:41:24.257Z,99105.62
2019-05-10T18:43:53.034Z,99113.28
2019-05-10T18:46:24.470Z,99111.48
2019-05-10T18:48:52.304Z,99118.78
2019-05-10T18:51:24.527Z,99113.11
2019-05-10T18:53:51.587Z,99123.06
2019-05-10T18:56:25.278Z,99124.00
2019-05-10T18:58:50.897Z,99119.24
2019-05-10T19:01:19.821Z,99125.91
2019-05-10T19:03:48.583Z,99122.70
2019-05-10T19:06:17.421Z,99129.33
2019-05-10T19:08:46.223Z,99131.51
2019-05-10T19:11:15.039Z,99135.39
2019-05-10T19:13:47.868Z,99137.05
2019-05-10T19:16:14.454Z,99140.70
2019-05-10T19:18:43.305Z,99141.55
2019-05-10T19:21:12.103Z,99137.45
2019-05-10T19:23:40.864Z,99147.35
2019-05-10T19:26:09.665Z,99142.41
2019-05-10T19:28:38.461Z,99145.63
2019-05-10T19:31:07.302Z,99154.55
2019-05-10T19:33:38.082Z,99154.36
2019-05-10T19:36:12.157Z,99158.15
2019-05-10T19:38:37.427Z,99155.97
2019-05-10T19:41:06.261Z,99166.11
2019-05-10T19:43:35.143Z,99167.72
2019-05-10T19:46:03.943Z,99168.36
2019-05-10T19:48:35.749Z,99166.07
2019-05-10T19:51:09.739Z,99168.83
2019-05-10T19:53:36.493Z,99171.59
2019-05-10T19:56:04.390Z,99177.28
2019-05-10T19:58:34.049Z,99178.61
2019-05-10T20:01:03.063Z,99181.91
2019-05-10T20:03:31.862Z,99181.09
2019-05-10T20:06:00.622Z,99189.30
2019-05-10T20:08:29.462Z,99192.52
2019-05-10T20:10:58.222Z,99192.52
2019-05-10T20:13:27.387Z,99188.40
2019-05-10T20:15:56.310Z,99198.06
2019-05-10T20:18:25.142Z,99196.36
2019-05-10T20:20:53.902Z,99199.31
2019-05-10T20:23:22.702Z,99197.59
2019-05-10T20:25:51.461Z,99195.17
2019-05-10T20:28:20.304Z,99200.80
2019-05-10T20:30:49.181Z,99198.16
2019-05-10T20:33:17.912Z,99203.58
2019-05-10T20:35:46.745Z,99202.78
2019-05-10T20:38:15.502Z,99198.70
2019-05-10T20:40:44.304Z,99196.73
2019-05-10T20:43:13.184Z,99196.73
2019-05-10T20:45:41.982Z,99189.00
2019-05-10T20:48:10.832Z,99188.69
2019-05-10T20:50:39.625Z,99192.86
2019-05-10T20:53:08.462Z,99202.85
2019-05-10T20:55:37.292Z,99206.18
2019-05-10T20:58:06.265Z,99202.94
2019-05-10T21:00:35.128Z,99200.92
2019-05-10T21:03:04.544Z,99208.28
2019-05-10T21:05:33.383Z,99204.42
2019-05-10T21:08:16.050Z,99206.02
2019-05-10T21:10:32.772Z,99209.68
2019-05-10T21:13:01.554Z,99212.97
2019-05-10T21:15:30.346Z,99208.30
2019-05-10T21:17:59.204Z,99215.66
2019-05-10T21:20:28.014Z,99218.84
2019-05-10T21:22:56.754Z,99218.41
2019-05-10T21:25:25.584Z,99220.48
2019-05-10T21:27:54.424Z,99216.98
2019-05-10T21:30:23.223Z,99212.91
2019-05-10T21:32:52.030Z,99221.34
2019-05-10T21:35:20.951Z,99214.71
2019-05-10T21:37:49.824Z,99215.75
2019-05-10T21:40:18.750Z,99216.82
2019-05-10T21:42:47.543Z,99209.34
2019-05-10T21:45:16.382Z,99204.30
2019-05-10T21:47:51.726Z,99205.22
2019-05-10T21:50:15.755Z,99197.06
2019-05-10T21:52:44.542Z,99204.16
2019-05-10T21:55:13.462Z,99203.03
2019-05-10T21:57:42.221Z,99191.81
2019-05-10T22:00:11.783Z,99200.73
2019-05-10T22:02:40.612Z,99201.34
2019-05-10T22:05:09.560Z,99201.37
2019-05-10T22:07:38.432Z,99196.82
2019-05-10T22:10:07.942Z,99204.98
2019-05-10T22:12:36.742Z,99201.66
2019-05-10T22:15:06.863Z,99215.61
2019-05-10T22:17:35.631Z,99211.06
2019-05-10T22:20:06.864Z,99212.84
2019-05-10T22:22:35.621Z,99210.15
2019-05-10T22:25:05.621Z,99220.98
2019-05-10T22:27:34.462Z,99224.27
2019-05-10T22:30:03.744Z,99217.56
2019-05-10T22:32:32.503Z,99217.94
2019-05-10T22:35:01.341Z,99218.83
2019-05-10T22:37:30.195Z,99216.94
2019-05-10T22:39:59.061Z,99221.91
2019-05-10T22:42:27.844Z,99225.50
2019-05-10T22:44:57.423Z,99218.27
2019-05-10T22:47:26.262Z,99218.73
2019-05-10T22:49:55.063Z,99222.62
2019-05-10T22:52:23.790Z,99220.68
2019-05-10T22:54:52.666Z,99213.91
2019-05-10T22:57:21.463Z,99210.31
2019-05-10T22:59:50.304Z,99214.20
2019-05-10T23:02:19.139Z,99222.31
2019-05-10T23:04:47.982Z,99220.59
2019-05-10T23:07:16.902Z,99222.28
2019-05-10T23:09:45.706Z,99227.23
2019-05-10T23:12:14.504Z,99220.25
2019-05-10T23:14:43.307Z,99226.30
2019-05-10T23:17:12.144Z,99223.41
2019-05-10T23:19:40.948Z,99226.19
2019-05-10T23:22:09.824Z,99226.80
2019-05-10T23:24:39.367Z,99231.13
2019-05-10T23:27:08.664Z,99229.86
2019-05-10T23:29:37.625Z,99231.87
2019-05-10T23:32:06.392Z,99234.81
2019-05-10T23:34:35.184Z,99233.13
2019-05-10T23:37:03.969Z,99238.37
2019-05-10T23:39:40.996Z,99229.42
2019-05-10T23:42:03.346Z,99236.97
2019-05-10T23:44:32.144Z,99238.63
2019-05-10T23:47:00.905Z,99234.88
2019-05-10T23:49:29.744Z,99227.17
2019-05-10T23:51:58.506Z,99235.56
2019-05-10T23:54:27.305Z,99226.58
2019-05-10T23:56:56.145Z,99225.41
2019-05-10T23:59:24.954Z,99227.12
